Time;durP1;ratioP1;P1;durP2;ratioP2;P2;SDS_P1;SDS_P2;PMS_P1;PMS_P2;Temp;Humidity;BMP_temperature;BMP_pressure;BME280_temperature;BME280_humidity;BME280_pressure;Samples;Min_cycle;Max_cycle;Signal;HPM_P1;HPM_P2
2021/10/18 00:01:42;;;;;;;0.00;0.00;;;;;;;10.11;85.44;99586.81;5032214;28;20033;-81
2021/10/18 00:04:07;;;;;;;0.00;0.00;;;;;;;10.17;85.49;99587.66;5032401;28;20489;-83
2021/10/18 00:06:33;;;;;;;0.00;0.00;;;;;;;10.20;85.84;99597.81;5031807;28;20056;-83
2021/10/18 00:08:59;;;;;;;0.00;0.00;;;;;;;10.15;85.96;99589.78;5032857;28;20052;-80
2021/10/18 00:11:25;;;;;;;0.00;0.00;;;;;;;10.14;85.61;99582.81;5031654;28;20061;-81
2021/10/18 00:13:51;;;;;;;0.00;0.00;;;;;;;10.16;85.69;99588.72;5031690;28;20025;-83
2021/10/18 00:16:16;;;;;;;0.00;0.00;;;;;;;10.13;85.67;99594.56;5032232;28;20099;-81
2021/10/18 00:18:42;;;;;;;0.00;0.00;;;;;;;10.04;85.74;99578.22;5031520;28;20092;-80
2021/10/18 00:21:08;;;;;;;0.00;0.00;;;;;;;10.12;85.31;99585.75;5027603;28;20022;-81
2021/10/18 00:23:34;;;;;;;0.00;0.00;;;;;;;10.05;85.79;99575.28;5030804;28;20141;-81
2021/10/18 00:26:00;;;;;;;0.00;0.00;;;;;;;10.06;85.95;99571.56;5032552;28;20546;-88
2021/10/18 00:28:26;;;;;;;0.00;0.00;;;;;;;10.14;85.66;99580.13;5032565;28;20033;-89
2021/10/18 00:30:52;;;;;;;0.00;0.00;;;;;;;10.12;85.65;99588.44;5034045;28;20068;-93
2021/10/18 00:33:17;;;;;;;0.00;0.00;;;;;;;9.98;85.61;99564.00;5035954;28;20038;-87
2021/10/18 00:35:43;;;;;;;0.00;0.00;;;;;;;10.10;86.07;99579.84;5033521;28;20064;-76
2021/10/18 00:38:09;;;;;;;0.00;0.00;;;;;;;10.00;85.94;99572.59;5031639;28;20095;-76
2021/10/18 00:40:34;;;;;;;0.00;0.00;;;;;;;9.85;85.51;99549.25;5030960;28;20068;-88
2021/10/18 00:43:01;;;;;;;0.10;0.10;;;;;;;10.06;85.62;99578.78;5031615;28;20104;-81
2021/10/18 00:45:26;;;;;;;0.00;0.00;;;;;;;10.06;85.97;99574.22;5031761;28;20079;-83
2021/10/18 00:47:51;;;;;;;0.00;0.00;;;;;;;10.06;85.95;99573.44;5030468;28;20490;-81
2021/10/18 00:50:17;;;;;;;0.00;0.00;;;;;;;10.01;85.50;99576.06;5031662;28;20417;-81
2021/10/18 00:52:43;;;;;;;0.00;0.00;;;;;;;10.00;85.61;99572.59;5030414;28;20037;-80
2021/10/18 00:55:09;;;;;;;0.00;0.00;;;;;;;9.99;85.44;99573.66;5030778;28;20056;-81
2021/10/18 00:57:36;;;;;;;0.00;0.00;;;;;;;9.99;85.71;99575.53;5031489;28;20409;-85
2021/10/18 01:00:03;;;;;;;0.00;0.00;;;;;;;10.01;85.81;99586.75;5032590;28;20044;-88
2021/10/18 01:02:29;;;;;;;0.00;0.00;;;;;;;9.98;85.56;99587.28;5030573;28;20040;-81
2021/10/18 01:04:55;;;;;;;0.00;0.00;;;;;;;9.99;85.80;99588.88;5030972;28;20041;-81
2021/10/18 01:07:21;;;;;;;0.00;0.00;;;;;;;9.96;85.40;99586.72;5031474;28;20029;-82
2021/10/18 01:09:47;;;;;;;0.00;0.00;;;;;;;9.91;85.83;99574.13;5030947;28;20541;-81
2021/10/18 01:12:13;;;;;;;0.00;0.00;;;;;;;9.92;85.32;99576.56;5031009;28;20048;-83
2021/10/18 01:14:38;;;;;;;0.00;0.00;;;;;;;9.82;85.43;99560.44;5030894;28;20018;-83
2021/10/18 01:17:04;;;;;;;0.00;0.00;;;;;;;9.97;85.79;99591.00;5030799;28;20044;-82
2021/10/18 01:19:30;;;;;;;0.00;0.00;;;;;;;9.95;85.99;99588.59;5030108;28;20406;-81
2021/10/18 01:21:58;;;;;;;0.00;0.00;;;;;;;9.91;86.14;99587.47;5029493;28;20029;-81
2021/10/18 01:24:24;;;;;;;0.00;0.00;;;;;;;9.90;85.40;99573.34;5031147;28;20040;-86
2021/10/18 01:26:50;;;;;;;0.10;0.10;;;;;;;9.95;85.85;99591.28;5023003;28;20038;-82
2021/10/18 01:29:16;;;;;;;0.00;0.00;;;;;;;9.91;86.32;99582.13;5010613;28;20028;-82
2021/10/18 01:31:41;;;;;;;0.03;0.03;;;;;;;9.90;86.07;99586.69;5018844;28;20181;-82
2021/10/18 01:34:07;;;;;;;0.00;0.00;;;;;;;9.95;85.93;99591.28;5030990;28;20030;-82
2021/10/18 01:36:33;;;;;;;0.00;0.00;;;;;;;9.91;86.43;99595.50;5030319;28;20541;-80
2021/10/18 01:38:59;;;;;;;0.00;0.00;;;;;;;9.91;85.84;99592.81;5030572;28;20482;-81
2021/10/18 01:41:24;;;;;;;0.00;0.00;;;;;;;9.91;86.49;99600.84;5029797;28;20103;-81
2021/10/18 01:43:50;;;;;;;0.05;0.05;;;;;;;9.88;86.40;99583.47;5030312;28;20029;-81
2021/10/18 01:46:15;;;;;;;0.10;0.10;;;;;;;9.89;86.26;99585.06;5029447;28;20030;-79
2021/10/18 01:48:41;;;;;;;0.15;0.15;;;;;;;9.88;86.40;99588.81;5031184;28;20087;-78
2021/10/18 01:51:08;;;;;;;0.10;0.10;;;;;;;9.89;86.94;99587.75;5030036;28;20037;-79
2021/10/18 01:53:33;;;;;;;0.00;0.00;;;;;;;9.89;86.37;99586.97;5029209;28;20582;-79
2021/10/18 01:55:59;;;;;;;0.00;0.00;;;;;;;9.84;86.24;99582.38;5030253;28;20041;-81
2021/10/18 01:58:24;;;;;;;0.00;0.00;;;;;;;9.88;86.62;99590.69;5031437;28;20033;-80
2021/10/18 02:00:50;;;;;;;0.00;0.00;;;;;;;9.86;86.96;99582.94;5030596;28;20045;-79
2021/10/18 02:03:15;;;;;;;0.00;0.00;;;;;;;9.84;86.55;99582.38;5029907;28;20033;-79
2021/10/18 02:05:41;;;;;;;0.05;0.05;;;;;;;9.83;86.87;99583.44;5010375;28;20087;-79
2021/10/18 02:08:06;;;;;;;0.00;0.00;;;;;;;9.85;86.64;99584.00;5016596;28;20401;-80
2021/10/18 02:10:32;;;;;;;0.00;0.00;;;;;;;9.83;86.82;99588.00;5030342;28;20021;-80
2021/10/18 02:12:58;;;;;;;0.00;0.00;;;;;;;9.82;86.34;99587.16;5029838;28;20032;-80
2021/10/18 02:15:23;;;;;;;0.10;0.10;;;;;;;9.81;86.58;99587.44;5030177;28;20025;-79
2021/10/18 02:17:52;;;;;;;0.00;0.00;;;;;;;9.77;86.74;99581.81;5026229;28;20040;-79
2021/10/18 02:20:17;;;;;;;0.00;0.00;;;;;;;9.78;87.04;99586.09;5017654;28;20041;-79
2021/10/18 02:22:43;;;;;;;0.00;0.00;;;;;;;9.80;86.87;99585.81;5028926;28;20038;-81
2021/10/18 02:25:12;;;;;;;0.00;0.00;;;;;;;9.52;86.47;99558.38;5030120;28;20486;-78
2021/10/18 02:27:38;;;;;;;0.00;0.00;;;;;;;9.72;86.37;99587.91;5029626;28;20030;-81
2021/10/18 02:30:06;;;;;;;0.00;0.00;;;;;;;9.64;86.57;99568.88;5031334;28;20032;-80
2021/10/18 02:32:32;;;;;;;0.10;0.10;;;;;;;9.56;86.73;99560.28;5028251;28;20026;-79
2021/10/18 02:34:58;;;;;;;0.00;0.00;;;;;;;9.65;86.50;99581.97;5029477;28;20069;-79
2021/10/18 02:37:23;;;;;;;0.00;0.00;;;;;;;9.57;86.88;99571.75;5029646;28;20111;-79
2021/10/18 02:39:49;;;;;;;0.00;0.00;;;;;;;9.47;86.77;99551.13;5029298;28;20068;-78
2021/10/18 02:42:15;;;;;;;0.00;0.00;;;;;;;9.58;87.01;99578.72;5029378;28;20061;-80
2021/10/18 02:44:41;;;;;;;0.00;0.00;;;;;;;9.29;87.19;99531.78;5028861;28;20029;-85
2021/10/18 02:47:08;;;;;;;0.00;0.00;;;;;;;9.57;87.21;99582.44;5027776;28;20029;-85
2021/10/18 02:49:34;;;;;;;0.00;0.00;;;;;;;9.54;87.30;99577.63;5009989;28;20034;-85
2021/10/18 02:51:59;;;;;;;0.00;0.00;;;;;;;9.50;87.30;99581.88;5017093;28;20128;-80
2021/10/18 02:54:25;;;;;;;0.00;0.00;;;;;;;9.48;87.47;99584.00;5009837;28;20030;-80
2021/10/18 02:56:50;;;;;;;0.00;0.00;;;;;;;9.49;87.14;99585.63;5009533;28;20021;-82
2021/10/18 02:59:15;;;;;;;0.00;0.00;;;;;;;9.49;87.36;99590.94;5009633;28;20494;-80
2021/10/18 03:01:41;;;;;;;0.00;0.00;;;;;;;9.32;86.95;99567.84;5021806;28;20072;-83
2021/10/18 03:04:06;;;;;;;0.00;0.00;;;;;;;9.41;87.41;99581.53;5030481;28;20029;-85
2021/10/18 03:06:32;;;;;;;0.00;0.00;;;;;;;9.39;87.21;99589.00;5029272;28;20027;-83
2021/10/18 03:08:59;;;;;;;0.00;0.00;;;;;;;9.41;87.12;99595.69;5029866;28;20048;-83
2021/10/18 03:11:25;;;;;;;0.00;0.00;;;;;;;9.39;87.43;99587.13;5029317;28;20494;-84
2021/10/18 03:13:50;;;;;;;0.00;0.00;;;;;;;9.39;87.60;99595.13;5029197;28;20167;-78
2021/10/18 03:16:15;;;;;;;0.00;0.00;;;;;;;9.36;87.25;99595.66;5028785;28;20052;-81
2021/10/18 03:18:41;;;;;;;0.32;0.32;;;;;;;9.30;87.23;99591.31;5028899;28;20029;-81
2021/10/18 03:21:07;;;;;;;0.10;0.10;;;;;;;9.28;87.44;99588.09;5044525;28;20397;-82
2021/10/18 03:23:32;;;;;;;0.00;0.00;;;;;;;9.26;87.35;99587.56;5009738;28;20402;-82
2021/10/18 03:25:58;;;;;;;0.00;0.00;;;;;;;9.24;87.92;99589.66;5009373;28;20029;-83
2021/10/18 03:28:23;;;;;;;0.00;0.00;;;;;;;9.19;87.47;99589.63;5009612;28;20030;-79
2021/10/18 03:30:49;;;;;;;0.00;0.00;;;;;;;9.22;87.41;99584.56;5015765;28;20037;-79
2021/10/18 03:33:15;;;;;;;0.00;0.00;;;;;;;9.24;87.81;99595.00;5028651;28;20045;-80
2021/10/18 03:35:41;;;;;;;0.00;0.00;;;;;;;9.28;87.64;99596.13;5019428;28;20392;-81
2021/10/18 03:38:06;;;;;;;0.00;0.00;;;;;;;9.25;87.41;99592.09;5032137;28;20188;-84
2021/10/18 03:40:32;;;;;;;0.20;0.20;;;;;;;9.31;87.49;99598.25;5028715;28;20052;-84
2021/10/18 03:42:57;;;;;;;0.00;0.00;;;;;;;9.35;87.76;99596.72;5028967;28;20042;-81
2021/10/18 03:45:23;;;;;;;0.00;0.00;;;;;;;9.34;87.82;99595.09;5029697;28;20028;-78
2021/10/18 03:47:48;;;;;;;0.00;0.00;;;;;;;9.37;87.52;99601.78;5023891;28;20053;-78
2021/10/18 03:50:15;;;;;;;0.03;0.03;;;;;;;9.39;87.03;99600.47;5028021;28;20553;-79
2021/10/18 03:52:41;;;;;;;0.00;0.00;;;;;;;9.38;87.18;99598.06;5031147;28;20033;-80
2021/10/18 03:55:07;;;;;;;0.00;0.00;;;;;;;9.37;87.27;99599.13;5032670;28;20028;-86
2021/10/18 03:57:32;;;;;;;0.08;0.08;;;;;;;9.34;87.23;99592.44;5032916;28;20030;-85
2021/10/18 03:59:57;;;;;;;0.00;0.00;;;;;;;9.27;86.78;99581.94;5032264;28;20467;-83
2021/10/18 04:02:23;;;;;;;0.00;0.00;;;;;;;9.35;86.76;99594.03;5031778;28;20029;-80
2021/10/18 04:04:48;;;;;;;0.00;0.00;;;;;;;9.35;86.76;99596.72;5031638;28;20033;-79
2021/10/18 04:07:14;;;;;;;0.00;0.00;;;;;;;9.30;86.59;99599.31;5032229;28;20072;-79
2021/10/18 04:09:39;;;;;;;0.00;0.00;;;;;;;9.26;86.96;99593.72;5031807;28;20079;-77
2021/10/18 04:12:06;;;;;;;0.20;0.20;;;;;;;9.29;86.59;99603.06;5026843;28;20410;-77
2021/10/18 04:14:31;;;;;;;0.20;0.20;;;;;;;9.25;86.41;99601.94;5012548;28;20022;-81
2021/10/18 04:16:57;;;;;;;0.00;0.00;;;;;;;9.23;86.69;99601.41;5025318;28;20026;-84
2021/10/18 04:19:22;;;;;;;0.00;0.00;;;;;;;9.22;86.81;99599.81;5030599;28;20029;-79
2021/10/18 04:21:48;;;;;;;0.00;0.00;;;;;;;9.21;86.66;99601.66;5024975;28;20033;-81
2021/10/18 04:24:14;;;;;;;0.00;0.00;;;;;;;9.22;86.62;99607.81;5038881;28;20088;-75
2021/10/18 04:26:40;;;;;;;0.00;0.00;;;;;;;9.16;86.72;99604.28;5028055;28;20095;-85
2021/10/18 04:29:07;;;;;;;0.00;0.00;;;;;;;9.17;86.83;99600.56;5031434;28;20037;-82
2021/10/18 04:31:34;;;;;;;0.17;0.17;;;;;;;9.21;86.48;99616.88;5031647;28;20471;-82
2021/10/18 04:34:00;;;;;;;0.10;0.10;;;;;;;9.15;86.75;99604.53;5031381;28;20029;-82
2021/10/18 04:36:26;;;;;;;0.00;0.00;;;;;;;9.15;86.59;99604.53;5031767;28;20052;-82
2021/10/18 04:38:52;;;;;;;0.00;0.00;;;;;;;9.20;86.95;99613.38;5031727;28;20051;-83
2021/10/18 04:41:18;;;;;;;0.00;0.00;;;;;;;9.15;86.74;99599.19;5031970;28;20490;-82
2021/10/18 04:43:43;;;;;;;0.00;0.00;;;;;;;9.17;87.01;99605.88;5031274;28;20108;-82
2021/10/18 04:46:09;;;;;;;0.00;0.00;;;;;;;9.17;87.24;99608.56;5031299;28;20120;-82
2021/10/18 04:48:34;;;;;;;0.00;0.00;;;;;;;9.26;87.16;99617.72;5031665;28;20033;-82
2021/10/18 04:51:00;;;;;;;0.00;0.00;;;;;;;9.20;87.07;99610.72;5031137;28;20087;-82
2021/10/18 04:53:25;;;;;;;0.00;0.00;;;;;;;9.25;86.83;99615.28;5031273;28;20108;-81
2021/10/18 04:55:51;;;;;;;0.00;0.00;;;;;;;9.23;87.12;99612.09;5031047;28;20029;-82
2021/10/18 04:58:16;;;;;;;0.00;0.00;;;;;;;9.32;87.11;99621.22;5031374;28;20027;-82
2021/10/18 05:00:49;;;;;;;0.00;0.00;;;;;;;9.31;86.79;99624.97;5031430;28;20398;-82
2021/10/18 05:03:14;;;;;;;0.00;0.00;;;;;;;9.36;86.82;99624.19;5031309;28;20103;-82
2021/10/18 05:05:40;;;;;;;0.00;0.00;;;;;;;9.36;86.80;99625.03;5031241;28;20037;-82
2021/10/18 05:08:11;;;;;;;0.00;0.00;;;;;;;9.37;86.91;99620.47;5030938;28;20021;-82
2021/10/18 05:10:38;;;;;;;0.00;0.00;;;;;;;9.39;86.68;99635.19;5031101;28;20044;-82
2021/10/18 05:13:04;;;;;;;0.00;0.00;;;;;;;9.43;86.48;99633.59;5030849;28;20033;-82
2021/10/18 05:15:30;;;;;;;0.00;0.00;;;;;;;9.43;86.71;99636.28;5030960;28;20033;-82
2021/10/18 05:17:56;;;;;;;0.10;0.10;;;;;;;9.50;86.63;99643.28;5030704;28;20060;-82
2021/10/18 05:20:21;;;;;;;0.00;0.00;;;;;;;9.54;86.73;99650.53;5030977;28;20052;-82
2021/10/18 05:22:47;;;;;;;0.00;0.00;;;;;;;9.54;86.74;99644.38;5030767;28;20034;-82
2021/10/18 05:25:13;;;;;;;0.05;0.05;;;;;;;9.55;86.46;99652.13;5030929;28;20033;-82
2021/10/18 05:27:38;;;;;;;0.00;0.00;;;;;;;9.57;86.15;99655.38;5030750;28;20029;-82
2021/10/18 05:30:07;;;;;;;0.00;0.00;;;;;;;9.57;85.99;99641.19;5030368;28;20098;-82
2021/10/18 05:32:32;;;;;;;0.00;0.00;;;;;;;9.65;86.34;99655.97;5030726;28;20017;-82
2021/10/18 05:34:58;;;;;;;0.00;0.00;;;;;;;9.68;86.77;99653.59;5030580;28;20486;-82
2021/10/18 05:37:23;;;;;;;0.00;0.00;;;;;;;9.70;85.87;99658.66;5030305;28;20026;-82
2021/10/18 05:39:49;;;;;;;0.00;0.00;;;;;;;9.78;85.84;99669.69;5029990;28;20088;-83
2021/10/18 05:42:14;;;;;;;0.00;0.00;;;;;;;9.78;86.40;99668.88;5030660;28;20037;-82
2021/10/18 05:44:40;;;;;;;0.00;0.00;;;;;;;9.82;85.95;99672.66;5030301;28;20030;-83
2021/10/18 05:47:05;;;;;;;0.00;0.00;;;;;;;9.83;85.49;99670.81;5030245;28;20033;-82
2021/10/18 05:49:31;;;;;;;0.00;0.00;;;;;;;9.92;85.97;99682.59;5030364;28;20033;-81
2021/10/18 05:51:56;;;;;;;0.00;0.00;;;;;;;9.95;86.18;99682.09;5030064;28;20497;-82
2021/10/18 05:54:22;;;;;;;0.00;0.00;;;;;;;9.94;85.86;99683.16;5030226;28;20029;-82
2021/10/18 05:56:49;;;;;;;0.00;0.00;;;;;;;9.95;85.89;99684.78;5029837;28;20029;-82
2021/10/18 05:59:15;;;;;;;0.00;0.00;;;;;;;9.97;86.25;99679.19;5030192;28;20035;-82
2021/10/18 06:01:41;;;;;;;0.35;0.35;;;;;;;10.05;86.10;99687.50;5030244;28;20029;-82
2021/10/18 06:04:06;;;;;;;0.00;0.00;;;;;;;10.06;85.67;99689.13;5029873;28;20087;-82
2021/10/18 06:06:33;;;;;;;0.00;0.00;;;;;;;10.12;86.19;99692.66;5030117;28;20029;-82
2021/10/18 06:08:59;;;;;;;0.00;0.00;;;;;;;10.13;85.65;99691.59;5029222;28;20482;-82
2021/10/18 06:11:24;;;;;;;0.10;0.10;;;;;;;10.16;85.54;99698.28;5029963;28;20087;-82
2021/10/18 06:13:50;;;;;;;0.00;0.00;;;;;;;10.20;85.69;99702.84;5029840;28;20139;-82
2021/10/18 06:16:15;;;;;;;0.00;0.00;;;;;;;10.23;85.30;99702.34;5029958;28;20478;-82
2021/10/18 06:18:41;;;;;;;0.00;0.00;;;;;;;10.28;85.53;99703.44;5029692;28;20026;-81
2021/10/18 06:21:06;;;;;;;0.03;0.03;;;;;;;10.29;85.28;99697.84;5029651;28;20052;-82
2021/10/18 06:23:32;;;;;;;0.00;0.00;;;;;;;10.31;85.79;99698.38;5029902;28;20040;-82
2021/10/18 06:25:57;;;;;;;0.00;0.00;;;;;;;10.34;86.15;99707.75;5029749;28;20037;-83
2021/10/18 06:28:23;;;;;;;0.20;0.20;;;;;;;10.47;86.16;99707.31;5029945;28;20120;-83
2021/10/18 06:30:48;;;;;;;0.00;0.00;;;;;;;10.51;86.28;99715.63;5029505;28;20567;-83
2021/10/18 06:33:15;;;;;;;0.10;0.10;;;;;;;10.60;86.18;99721.31;5029666;28;20465;-82
2021/10/18 06:35:44;;;;;;;0.00;0.00;;;;;;;10.66;85.86;99726.44;5029230;28;20116;-82
2021/10/18 06:38:15;;;;;;;0.00;0.00;;;;;;;10.62;85.22;99716.50;5029510;28;20029;-82
2021/10/18 06:40:47;;;;;;;0.40;0.40;;;;;;;10.80;85.06;99729.47;5029303;28;20415;-82
2021/10/18 06:43:14;;;;;;;0.00;0.00;;;;;;;10.74;84.28;99706.38;5029412;28;20104;-82
2021/10/18 06:45:41;;;;;;;0.00;0.00;;;;;;;10.84;84.46;99724.34;5029550;28;20124;-81
2021/10/18 06:48:08;;;;;;;0.03;0.03;;;;;;;11.00;84.22;99731.41;5029177;28;20029;-82
2021/10/18 06:50:34;;;;;;;0.20;0.20;;;;;;;11.04;84.14;99729.81;5029643;28;20034;-82
2021/10/18 06:53:00;;;;;;;0.00;0.00;;;;;;;11.11;83.47;99726.06;5029363;28;20057;-82
2021/10/18 06:55:27;;;;;;;0.10;0.10;;;;;;;11.20;82.92;99724.50;5029377;28;20048;-83
2021/10/18 06:57:55;;;;;;;0.00;0.00;;;;;;;11.09;82.79;99704.13;5029466;28;20025;-81
2021/10/18 07:00:30;;;;;;;0.10;0.10;;;;;;;11.30;82.93;99729.09;5028576;28;20106;-81
2021/10/18 07:02:56;;;;;;;0.70;0.70;;;;;;;11.38;82.78;99737.41;5029446;28;20030;-82
2021/10/18 07:05:21;;;;;;;0.00;0.00;;;;;;;11.48;82.16;99730.47;5029128;28;20461;-82
2021/10/18 07:07:47;;;;;;;0.28;0.28;;;;;;;11.53;82.04;99727.81;5029514;28;20040;-82
2021/10/18 07:10:13;;;;;;;0.10;0.10;;;;;;;11.61;81.81;99731.81;5029316;28;20461;-82
2021/10/18 07:12:39;;;;;;;0.00;0.00;;;;;;;11.71;81.58;99723.81;5029057;28;20032;-82
2021/10/18 07:15:05;;;;;;;0.22;0.22;;;;;;;11.77;81.05;99738.03;5029328;28;20482;-81
2021/10/18 07:17:30;;;;;;;0.70;0.70;;;;;;;11.81;81.87;99731.84;5028941;28;20116;-82
2021/10/18 07:19:57;;;;;;;0.00;0.00;;;;;;;11.93;81.36;99736.16;5030027;28;20537;-81
2021/10/18 07:22:30;;;;;;;0.17;0.17;;;;;;;11.98;80.80;99739.66;5032920;28;20078;-81
2021/10/18 07:24:56;;;;;;;0.20;0.20;;;;;;;12.05;80.86;99733.22;5033039;28;20087;-82
2021/10/18 07:27:25;;;;;;;0.00;0.00;;;;;;;12.14;80.70;99736.97;5032868;28;20030;-82
2021/10/18 07:29:51;;;;;;;0.10;0.10;;;;;;;12.24;80.12;99736.16;5032993;28;20067;-82
2021/10/18 07:32:16;;;;;;;0.00;0.00;;;;;;;12.29;80.36;99739.66;5032876;28;20160;-82
2021/10/18 07:34:42;;;;;;;0.10;0.10;;;;;;;12.41;79.71;99738.56;5032769;28;20040;-81
2021/10/18 07:37:08;;;;;;;0.00;0.00;;;;;;;12.54;79.56;99753.31;5032855;28;20017;-82
2021/10/18 07:39:34;;;;;;;0.45;0.45;;;;;;;12.58;79.85;99736.38;5032388;28;20486;-81
2021/10/18 07:42:00;;;;;;;0.10;0.10;;;;;;;12.73;78.84;99734.72;5033095;28;20075;-81
2021/10/18 07:44:26;;;;;;;0.30;0.30;;;;;;;12.80;77.35;99736.06;5032611;28;20030;-82
2021/10/18 07:46:58;;;;;;;0.20;0.20;;;;;;;12.90;77.09;99743.28;5032838;28;20025;-81
2021/10/18 07:49:27;;;;;;;0.55;0.55;;;;;;;13.04;76.64;99748.06;5032402;28;20128;-82
2021/10/18 07:51:54;;;;;;;0.20;0.20;;;;;;;13.15;75.64;99749.63;5032742;28;20025;-81
2021/10/18 07:54:19;;;;;;;0.10;0.10;;;;;;;13.27;75.02;99736.66;5032246;28;20082;-81
2021/10/18 07:56:45;;;;;;;0.10;0.10;;;;;;;13.42;74.12;99743.06;5032382;28;20037;-81
2021/10/18 07:59:10;;;;;;;0.10;0.10;;;;;;;13.49;73.22;99738.19;5032619;28;20044;-81
2021/10/18 08:01:36;;;;;;;3.70;0.65;;;;;;;13.55;72.67;99734.38;5032188;28;20036;-81
2021/10/18 08:04:01;;;;;;;0.20;0.20;;;;;;;13.70;72.40;99735.38;5032320;28;20621;-82
2021/10/18 08:06:27;;;;;;;0.17;0.17;;;;;;;13.78;72.16;99740.16;5032125;28;20022;-81
2021/10/18 08:08:55;;;;;;;0.45;0.45;;;;;;;13.84;71.70;99733.66;5032349;28;20026;-81
2021/10/18 08:11:21;;;;;;;0.38;0.38;;;;;;;13.90;71.05;99743.28;5031897;28;20033;-81
2021/10/18 08:13:46;;;;;;;0.10;0.10;;;;;;;13.92;71.37;99741.09;5032040;28;20034;-81
2021/10/18 08:16:12;;;;;;;0.82;0.82;;;;;;;13.97;70.79;99751.03;5031972;28;20029;-81
2021/10/18 08:18:38;;;;;;;0.95;0.95;;;;;;;13.98;71.47;99749.94;5031865;28;20068;-81
2021/10/18 08:21:08;;;;;;;0.10;0.10;;;;;;;14.05;70.83;99757.69;5031980;28;20049;-81
2021/10/18 08:23:34;;;;;;;0.10;0.10;;;;;;;14.08;70.39;99755.22;5031456;28;20398;-81
2021/10/18 08:26:00;;;;;;;0.10;0.10;;;;;;;14.11;68.23;99758.44;5031960;28;20052;-81
2021/10/18 08:28:27;;;;;;;0.30;0.30;;;;;;;14.18;68.46;99748.94;5031771;28;20406;-81
2021/10/18 08:30:53;;;;;;;0.20;0.20;;;;;;;14.24;68.00;99744.34;5031288;28;20100;-81
2021/10/18 08:33:18;;;;;;;0.10;0.10;;;;;;;14.28;67.79;99739.19;5031612;28;20026;-81
2021/10/18 08:35:44;;;;;;;0.25;0.25;;;;;;;14.28;68.06;99741.88;5031365;28;20026;-81
2021/10/18 08:41:04;;;;;;;0.40;0.40;;;;;;;14.30;66.64;99747.78;5032761;28;20057;-81
2021/10/18 08:44:13;;;;;;;0.95;0.95;;;;;;;14.34;66.88;99743.44;5031938;28;20485;-81
2021/10/18 08:46:12;;;;;;;0.57;0.50;;;;;;;14.36;68.37;99749.34;5032382;28;20487;-81
2021/10/18 08:48:38;;;;;;;0.10;0.10;;;;;;;14.37;67.52;99738.28;5031222;28;20040;-81
2021/10/18 08:51:03;;;;;;;0.57;0.57;;;;;;;14.43;66.78;99740.94;5031109;28;20045;-81
2021/10/18 08:53:29;;;;;;;0.10;0.10;;;;;;;14.43;67.29;99730.16;5030990;28;20029;-81
2021/10/18 08:55:54;;;;;;;0.20;0.20;;;;;;;14.43;67.11;99739.06;5031171;28;20124;-80
2021/10/18 08:58:20;;;;;;;0.52;0.52;;;;;;;14.44;67.37;99735.28;5031214;28;20120;-81
2021/10/18 09:00:48;;;;;;;0.47;0.47;;;;;;;14.45;67.82;99739.56;5030960;28;20029;-81
2021/10/18 09:03:20;;;;;;;0.10;0.10;;;;;;;14.53;68.18;99735.47;5031253;28;20029;-81
2021/10/18 09:05:46;;;;;;;0.13;0.13;;;;;;;14.59;67.29;99734.31;5030842;28;20045;-81
2021/10/18 09:08:32;;;;;;;0.10;0.10;;;;;;;14.63;66.71;99737.25;5031142;28;20037;-81
2021/10/18 09:11:10;;;;;;;1.83;1.20;;;;;;;14.61;63.71;99731.34;5031084;28;20044;-81
2021/10/18 09:13:41;;;;;;;0.10;0.10;;;;;;;14.65;64.00;99733.19;5030766;28;20042;-81
2021/10/18 09:16:08;;;;;;;0.10;0.10;;;;;;;14.63;64.48;99727.25;5030908;28;20029;-81
2021/10/18 09:18:34;;;;;;;0.27;0.27;;;;;;;14.58;63.17;99725.41;5030840;28;20022;-81
2021/10/18 09:20:59;;;;;;;2.00;0.80;;;;;;;14.64;63.66;99728.88;5031034;28;20512;-81
2021/10/18 09:23:29;;;;;;;0.05;0.05;;;;;;;14.65;63.50;99725.13;5030854;28;20094;-81
2021/10/18 09:26:03;;;;;;;0.52;0.45;;;;;;;14.73;63.84;99729.88;5030970;28;20120;-81
2021/10/18 09:28:29;;;;;;;0.20;0.20;;;;;;;14.68;60.59;99712.97;5030675;28;20084;-82
2021/10/18 09:30:56;;;;;;;0.43;0.43;;;;;;;14.62;60.07;99719.47;5030776;28;20479;-82
2021/10/18 09:33:26;;;;;;;0.28;0.28;;;;;;;14.61;60.58;99718.69;5030695;28;20383;-82
2021/10/18 09:35:53;;;;;;;0.10;0.10;;;;;;;14.62;62.24;99711.41;5030753;28;20061;-81
2021/10/18 09:38:21;;;;;;;0.10;0.10;;;;;;;14.65;62.54;99713.53;5030662;28;20033;-82
2021/10/18 09:40:49;;;;;;;0.30;0.30;;;;;;;14.69;62.64;99701.91;5030120;28;20124;-82
2021/10/18 09:43:35;;;;;;;0.05;0.05;;;;;;;14.70;61.34;99694.66;5029684;28;20272;-82
2021/10/18 09:46:14;;;;;;;0.10;0.10;;;;;;;14.80;60.01;99701.81;5030398;28;20025;-82
2021/10/18 10:56:32;;;;;;;0.43;0.43;;;;;;;15.93;56.57;99645.47;5012651;28;20053;-81
2021/10/18 10:59:11;;;;;;;1.08;0.65;;;;;;;15.84;56.56;99634.56;5029641;28;20033;-81
2021/10/18 11:01:40;;;;;;;0.25;0.25;;;;;;;15.80;57.12;99626.22;5033464;28;20022;-82
2021/10/18 11:04:24;;;;;;;;;;;;;;;15.86;56.70;99640.47;5034008;28;20123;-81
2021/10/18 11:06:49;;;;;;;0.77;0.25;;;;;;;15.88;57.58;99629.38;5033327;28;19924;-81
2021/10/18 11:09:35;;;;;;;0.00;0.00;;;;;;;15.94;58.03;99625.50;5033476;28;20025;-82
2021/10/18 11:12:01;;;;;;;0.65;0.38;;;;;;;15.94;56.92;99625.50;5033130;28;20129;-82
2021/10/18 11:14:26;;;;;;;0.10;0.10;;;;;;;15.91;57.22;99616.09;5033449;28;20120;-81
2021/10/18 11:16:52;;;;;;;0.15;0.15;;;;;;;15.94;57.15;99617.41;5033140;28;20401;-82
2021/10/18 11:19:21;;;;;;;0.10;0.10;;;;;;;15.94;57.57;99620.09;5033321;28;20030;-81
2021/10/18 11:21:55;;;;;;;0.32;0.32;;;;;;;15.94;57.75;99617.41;5032958;28;20087;-83
2021/10/18 11:24:21;;;;;;;0.10;0.10;;;;;;;15.96;57.54;99605.22;5033240;28;20128;-82
2021/10/18 11:26:47;;;;;;;0.10;0.10;;;;;;;15.97;57.39;99614.91;5032843;28;20543;-81
2021/10/18 11:29:12;;;;;;;0.10;0.10;;;;;;;15.97;56.83;99623.00;5033506;28;20128;-82
2021/10/18 11:31:43;;;;;;;0.28;0.28;;;;;;;15.91;56.88;99618.00;5033008;28;20033;-82
2021/10/18 11:34:19;;;;;;;0.90;0.90;;;;;;;15.71;57.38;99586.75;5032679;28;20017;-82
2021/10/18 11:36:53;;;;;;;0.30;0.30;;;;;;;15.86;56.62;99610.81;5032399;28;20033;-82
2021/10/18 11:39:25;;;;;;;0.52;0.52;;;;;;;15.81;57.37;99600.09;5032922;28;20025;-82
2021/10/18 11:42:13;;;;;;;0.20;0.20;;;;;;;15.85;57.57;99603.81;5032590;28;20239;-82
2021/10/18 11:44:39;;;;;;;0.55;0.55;;;;;;;15.88;58.17;99599.72;5032511;28;20033;-82
2021/10/18 11:47:05;;;;;;;0.60;0.60;;;;;;;15.89;58.03;99607.50;5032766;28;20044;-82
2021/10/18 11:49:31;;;;;;;0.47;0.47;;;;;;;15.89;58.33;99609.41;5032671;28;20025;-82
2021/10/18 11:51:56;;;;;;;2.28;0.88;;;;;;;15.87;58.18;99600.78;5032417;28;20029;-82
2021/10/18 11:54:21;;;;;;;0.88;0.88;;;;;;;15.90;58.38;99600.22;5032594;28;20025;-82
2021/10/18 11:56:53;;;;;;;0.50;0.50;;;;;;;15.89;58.87;99599.41;5032165;28;20033;-82
2021/10/18 11:59:19;;;;;;;0.10;0.10;;;;;;;15.91;59.25;99583.72;5032383;28;20116;-82
2021/10/18 12:01:44;;;;;;;0.90;0.90;;;;;;;16.00;58.92;99589.22;5032198;28;20478;-83
2021/10/18 12:04:10;;;;;;;0.10;0.10;;;;;;;16.11;59.05;99593.34;5032401;28;20554;-82
2021/10/18 12:06:46;;;;;;;0.10;0.10;;;;;;;16.13;59.65;99585.75;5031111;28;20410;-83
2021/10/18 12:09:24;;;;;;;0.40;0.40;;;;;;;16.20;59.60;99585.34;5032494;28;20094;-83
2021/10/18 12:11:52;;;;;;;0.10;0.10;;;;;;;16.26;58.27;99578.75;5032162;28;20533;-83
2021/10/18 12:14:17;;;;;;;0.45;0.45;;;;;;;16.33;58.63;99583.72;5032170;28;20044;-83
2021/10/18 12:16:43;;;;;;;0.08;0.08;;;;;;;16.28;58.24;99573.84;5031595;28;20479;-83
2021/10/18 12:19:08;;;;;;;0.00;0.00;;;;;;;16.33;58.69;99575.63;5032219;28;20025;-83
2021/10/18 12:21:38;;;;;;;0.38;0.38;;;;;;;16.37;58.41;99578.53;5031775;28;20582;-83
2021/10/18 12:24:07;;;;;;;0.43;0.43;;;;;;;16.33;59.09;99571.06;5031950;28;20406;-82
2021/10/18 12:26:39;;;;;;;0.20;0.20;;;;;;;16.38;58.32;99590.94;5031869;28;20045;-82
2021/10/18 12:29:14;;;;;;;0.20;0.20;;;;;;;16.33;58.40;99578.34;5031942;28;20029;-82
2021/10/18 12:31:39;;;;;;;0.75;0.63;;;;;;;16.40;58.40;99583.34;5031618;28;20465;-82
2021/10/18 12:34:13;;;;;;;0.80;0.80;;;;;;;16.36;58.06;99569.66;5031705;28;20061;-82
2021/10/18 12:36:46;;;;;;;0.63;0.63;;;;;;;16.46;58.73;99585.63;5031369;28;20483;-82
2021/10/18 12:39:12;;;;;;;1.10;1.08;;;;;;;16.43;58.49;99572.75;5031645;28;20083;-81
2021/10/18 12:41:42;;;;;;;0.75;0.75;;;;;;;16.42;58.09;99573.84;5031282;28;20050;-83
2021/10/18 12:44:11;;;;;;;0.10;0.10;;;;;;;16.48;59.21;99583.41;5031635;28;20486;-83
2021/10/18 12:46:40;;;;;;;0.30;0.30;;;;;;;16.46;59.45;99576.72;5031416;28;20031;-83